sensor_id;sensor_type;location;lat;lon;timestamp;pressure;altitude;pressure_sealevel;temperature;humidity
1077;BME280;64114;48.726;9.370;2022-10-16T00:01:07;98601.06;;;16.47;100.00
1077;BME280;64114;48.726;9.370;2022-10-16T00:03:36;98593.47;;;16.39;100.00
1077;BME280;64114;48.726;9.370;2022-10-16T00:06:05;98610.88;;;16.75;100.00
1077;BME280;64114;48.726;9.370;2022-10-16T00:08:34;98597.81;;;16.81;100.00
1077;BME280;64114;48.726;9.370;2022-10-16T00:11:03;98615.66;;;16.94;100.00
1077;BME280;64114;48.726;9.370;2022-10-16T00:13:32;98574.38;;;16.45;100.00
1077;BME280;64114;48.726;9.370;2022-10-16T00:16:01;98614.81;;;16.51;100.00
1077;BME280;64114;48.726;9.370;2022-10-16T00:18:30;98580.03;;;16.22;100.00
1077;BME280;64114;48.726;9.370;2022-10-16T00:21:03;98594.19;;;16.46;100.00
1077;BME280;64114;48.726;9.370;2022-10-16T00:23:31;98605.66;;;16.34;100.00
1077;BME280;64114;48.726;9.370;2022-10-16T00:26:03;98598.25;;;16.16;100.00
1077;BME280;64114;48.726;9.370;2022-10-16T00:28:32;98606.78;;;16.19;100.00
1077;BME280;64114;48.726;9.370;2022-10-16T00:31:03;98620.66;;;16.15;100.00
1077;BME280;64114;48.726;9.370;2022-10-16T00:33:31;98615.47;;;16.15;100.00
1077;BME280;64114;48.726;9.370;2022-10-16T00:35:59;98632.09;;;16.03;100.00
1077;BME280;64114;48.726;9.370;2022-10-16T00:38:28;98611.56;;;15.94;100.00
1077;BME280;64114;48.726;9.370;2022-10-16T00:40:56;98587.66;;;15.81;100.00
1077;BME280;64114;48.726;9.370;2022-10-16T00:43:36;98626.22;;;15.93;100.00
1077;BME280;64114;48.726;9.370;2022-10-16T00:46:12;98628.81;;;15.93;100.00
1077;BME280;64114;48.726;9.370;2022-10-16T00:48:41;98614.28;;;15.86;100.00
1077;BME280;64114;48.726;9.370;2022-10-16T00:51:10;98593.13;;;15.64;100.00
1077;BME280;64114;48.726;9.370;2022-10-16T00:53:40;98612.63;;;15.82;100.00
1077;BME280;64114;48.726;9.370;2022-10-16T00:56:08;98611.91;;;15.75;100.00
1077;BME280;64114;48.726;9.370;2022-10-16T00:58:36;98608.78;;;16.05;100.00
1077;BME280;64114;48.726;9.370;2022-10-16T01:01:04;98572.63;;;16.03;100.00
1077;BME280;64114;48.726;9.370;2022-10-16T01:03:34;98611.59;;;15.92;100.00
1077;BME280;64114;48.726;9.370;2022-10-16T01:06:12;98584.56;;;15.62;100.00
1077;BME280;64114;48.726;9.370;2022-10-16T01:08:57;98602.66;;;15.60;100.00
1077;BME280;64114;48.726;9.370;2022-10-16T01:11:31;98618.19;;;15.59;100.00
1077;BME280;64114;48.726;9.370;2022-10-16T01:14:06;98632.69;;;15.67;100.00
1077;BME280;64114;48.726;9.370;2022-10-16T01:16:40;98626.69;;;15.65;100.00
1077;BME280;64114;48.726;9.370;2022-10-16T01:19:14;98632.81;;;15.60;100.00
1077;BME280;64114;48.726;9.370;2022-10-16T01:21:46;98620.13;;;15.46;100.00
1077;BME280;64114;48.726;9.370;2022-10-16T01:24:27;98638.88;;;15.57;100.00
1077;BME280;64114;48.726;9.370;2022-10-16T01:27:05;98641.41;;;15.62;100.00
1077;BME280;64114;48.726;9.370;2022-10-16T01:29:37;98644.97;;;15.53;100.00
1077;BME280;64114;48.726;9.370;2022-10-16T01:32:11;98646.69;;;15.54;100.00
1077;BME280;64114;48.726;9.370;2022-10-16T01:34:46;98646.94;;;15.90;100.00
1077;BME280;64114;48.726;9.370;2022-10-16T01:37:18;98583.69;;;15.61;100.00
1077;BME280;64114;48.726;9.370;2022-10-16T01:39:50;98613.81;;;15.64;100.00
1077;BME280;64114;48.726;9.370;2022-10-16T01:42:27;98625.91;;;15.62;100.00
1077;BME280;64114;48.726;9.370;2022-10-16T01:44:58;98636.97;;;15.70;100.00
1077;BME280;64114;48.726;9.370;2022-10-16T01:47:30;98638.41;;;15.85;100.00
1077;BME280;64114;48.726;9.370;2022-10-16T01:50:00;98628.41;;;15.66;100.00
1077;BME280;64114;48.726;9.370;2022-10-16T01:52:34;98609.72;;;15.50;100.00
1077;BME280;64114;48.726;9.370;2022-10-16T01:55:05;98605.50;;;15.45;100.00
1077;BME280;64114;48.726;9.370;2022-10-16T01:57:36;98603.78;;;15.45;100.00
1077;BME280;64114;48.726;9.370;2022-10-16T02:00:10;98622.72;;;15.44;100.00
1077;BME280;64114;48.726;9.370;2022-10-16T02:02:40;98611.53;;;15.45;100.00
1077;BME280;64114;48.726;9.370;2022-10-16T02:05:15;98619.13;;;15.53;100.00
1077;BME280;64114;48.726;9.370;2022-10-16T02:07:45;98619.03;;;15.59;100.00
1077;BME280;64114;48.726;9.370;2022-10-16T02:10:13;98616.59;;;15.50;100.00
1077;BME280;64114;48.726;9.370;2022-10-16T02:12:45;98608.88;;;15.48;100.00
1077;BME280;64114;48.726;9.370;2022-10-16T02:15:16;98608.84;;;15.50;100.00
1077;BME280;64114;48.726;9.370;2022-10-16T02:17:43;98612.41;;;15.43;100.00
1077;BME280;64114;48.726;9.370;2022-10-16T02:20:11;98617.84;;;15.79;100.00
1077;BME280;64114;48.726;9.370;2022-10-16T02:22:43;98609.81;;;15.96;100.00
1077;BME280;64114;48.726;9.370;2022-10-16T02:25:17;98622.84;;;15.88;100.00
1077;BME280;64114;48.726;9.370;2022-10-16T02:27:53;98634.28;;;15.75;100.00
1077;BME280;64114;48.726;9.370;2022-10-16T02:30:25;98638.78;;;15.63;100.00
1077;BME280;64114;48.726;9.370;2022-10-16T02:32:55;98628.53;;;15.59;100.00
1077;BME280;64114;48.726;9.370;2022-10-16T02:35:25;98631.13;;;15.57;100.00
1077;BME280;64114;48.726;9.370;2022-10-16T02:37:54;98625.91;;;15.60;100.00
1077;BME280;64114;48.726;9.370;2022-10-16T02:40:23;98633.66;;;15.62;100.00
1077;BME280;64114;48.726;9.370;2022-10-16T02:42:54;98619.59;;;15.78;100.00
1077;BME280;64114;48.726;9.370;2022-10-16T02:45:23;98570.22;;;15.40;100.00
1077;BME280;64114;48.726;9.370;2022-10-16T02:47:51;98603.47;;;15.64;100.00
1077;BME280;64114;48.726;9.370;2022-10-16T02:50:18;98601.00;;;15.58;100.00
1077;BME280;64114;48.726;9.370;2022-10-16T02:52:46;98602.59;;;15.65;100.00
1077;BME280;64114;48.726;9.370;2022-10-16T02:55:14;98613.81;;;15.64;100.00
1077;BME280;64114;48.726;9.370;2022-10-16T02:57:42;98606.91;;;15.64;100.00
1077;BME280;64114;48.726;9.370;2022-10-16T03:00:14;98602.38;;;15.77;100.00
1077;BME280;64114;48.726;9.370;2022-10-16T03:02:42;98615.88;;;15.95;100.00
1077;BME280;64114;48.726;9.370;2022-10-16T03:05:10;98632.25;;;15.94;100.00
1077;BME280;64114;48.726;9.370;2022-10-16T03:07:38;98631.66;;;15.78;100.00
1077;BME280;64114;48.726;9.370;2022-10-16T03:10:06;98618.09;;;15.65;100.00
1077;BME280;64114;48.726;9.370;2022-10-16T03:12:35;98628.50;;;15.60;100.00
1077;BME280;64114;48.726;9.370;2022-10-16T03:15:03;98600.94;;;15.59;100.00
1077;BME280;64114;48.726;9.370;2022-10-16T03:17:33;98629.38;;;15.61;100.00
1077;BME280;64114;48.726;9.370;2022-10-16T03:20:01;98627.59;;;15.63;100.00
1077;BME280;64114;48.726;9.370;2022-10-16T03:22:30;98613.22;;;15.46;100.00
1077;BME280;64114;48.726;9.370;2022-10-16T03:24:57;98610.72;;;15.40;100.00
1077;BME280;64114;48.726;9.370;2022-10-16T03:27:25;98621.81;;;15.48;100.00
1077;BME280;64114;48.726;9.370;2022-10-16T03:29:54;98621.00;;;15.45;100.00
1077;BME280;64114;48.726;9.370;2022-10-16T03:32:22;98600.53;;;15.29;100.00
1077;BME280;64114;48.726;9.370;2022-10-16T03:34:53;98588.44;;;15.31;100.00
1077;BME280;64114;48.726;9.370;2022-10-16T03:37:22;98609.00;;;15.39;100.00
1077;BME280;64114;48.726;9.370;2022-10-16T03:39:51;98615.94;;;15.37;100.00
1077;BME280;64114;48.726;9.370;2022-10-16T03:42:19;98615.03;;;15.38;100.00
1077;BME280;64114;48.726;9.370;2022-10-16T03:44:47;98612.69;;;15.22;100.00
1077;BME280;64114;48.726;9.370;2022-10-16T03:47:14;98601.81;;;15.02;100.00
1077;BME280;64114;48.726;9.370;2022-10-16T03:49:47;98632.47;;;15.25;100.00
1077;BME280;64114;48.726;9.370;2022-10-16T03:52:16;98641.84;;;15.29;100.00
1077;BME280;64114;48.726;9.370;2022-10-16T03:54:49;98643.56;;;15.30;100.00
1077;BME280;64114;48.726;9.370;2022-10-16T03:57:17;98633.47;;;15.15;100.00
1077;BME280;64114;48.726;9.370;2022-10-16T03:59:45;98632.63;;;15.14;100.00
1077;BME280;64114;48.726;9.370;2022-10-16T04:02:12;98625.88;;;15.04;100.00
1077;BME280;64114;48.726;9.370;2022-10-16T04:04:40;98637.03;;;15.06;100.00
1077;BME280;64114;48.726;9.370;2022-10-16T04:07:08;98643.03;;;15.08;100.00
1077;BME280;64114;48.726;9.370;2022-10-16T04:09:38;98625.16;;;14.94;100.00
1077;BME280;64114;48.726;9.370;2022-10-16T04:12:06;98645.13;;;15.40;100.00
1077;BME280;64114;48.726;9.370;2022-10-16T04:14:34;98629.94;;;15.20;100.00
1077;BME280;64114;48.726;9.370;2022-10-16T04:17:02;98642.69;;;15.33;100.00
1077;BME280;64114;48.726;9.370;2022-10-16T04:19:30;98635.84;;;15.27;100.00
1077;BME280;64114;48.726;9.370;2022-10-16T04:21:58;98648.88;;;15.21;100.00
1077;BME280;64114;48.726;9.370;2022-10-16T04:24:26;98638.66;;;15.13;100.00
1077;BME280;64114;48.726;9.370;2022-10-16T04:26:55;98652.03;;;15.40;100.00
1077;BME280;64114;48.726;9.370;2022-10-16T04:29:22;98656.31;;;15.44;100.00
1077;BME280;64114;48.726;9.370;2022-10-16T04:31:50;98651.44;;;15.24;100.00
1077;BME280;64114;48.726;9.370;2022-10-16T04:34:18;98612.25;;;14.94;100.00
1077;BME280;64114;48.726;9.370;2022-10-16T04:36:46;98653.22;;;15.17;100.00
1077;BME280;64114;48.726;9.370;2022-10-16T04:39:14;98648.94;;;15.18;100.00
1077;BME280;64114;48.726;9.370;2022-10-16T04:41:42;98649.78;;;15.18;100.00
1077;BME280;64114;48.726;9.370;2022-10-16T04:44:11;98637.03;;;15.07;100.00
1077;BME280;64114;48.726;9.370;2022-10-16T04:46:38;98646.41;;;15.13;100.00
1077;BME280;64114;48.726;9.370;2022-10-16T04:49:06;98650.78;;;15.08;100.00
1077;BME280;64114;48.726;9.370;2022-10-16T04:51:34;98647.41;;;15.03;100.00
1077;BME280;64114;48.726;9.370;2022-10-16T04:54:02;98653.34;;;15.08;100.00
1077;BME280;64114;48.726;9.370;2022-10-16T04:56:30;98658.53;;;15.08;100.00
1077;BME280;64114;48.726;9.370;2022-10-16T04:58:58;98656.69;;;15.16;100.00
1077;BME280;64114;48.726;9.370;2022-10-16T05:01:27;98667.88;;;15.17;100.00
1077;BME280;64114;48.726;9.370;2022-10-16T05:03:55;98669.34;;;15.33;100.00
1077;BME280;64114;48.726;9.370;2022-10-16T05:06:23;98673.81;;;15.23;100.00
1077;BME280;64114;48.726;9.370;2022-10-16T05:08:51;98649.94;;;15.06;100.00
1077;BME280;64114;48.726;9.370;2022-10-16T05:11:19;98665.22;;;15.23;100.00
1077;BME280;64114;48.726;9.370;2022-10-16T05:13:47;98666.19;;;15.16;100.00
1077;BME280;64114;48.726;9.370;2022-10-16T05:16:20;98616.84;;;14.73;100.00
1077;BME280;64114;48.726;9.370;2022-10-16T05:18:51;98687.75;;;15.12;100.00
1077;BME280;64114;48.726;9.370;2022-10-16T05:21:29;98671.41;;;15.09;100.00
1077;BME280;64114;48.726;9.370;2022-10-16T05:23:57;98622.78;;;14.78;100.00
1077;BME280;64114;48.726;9.370;2022-10-16T05:26:25;98679.84;;;15.22;100.00
1077;BME280;64114;48.726;9.370;2022-10-16T05:28:53;98685.84;;;15.24;100.00
1077;BME280;64114;48.726;9.370;2022-10-16T05:31:21;98679.84;;;15.24;100.00
1077;BME280;64114;48.726;9.370;2022-10-16T05:33:50;98641.47;;;14.96;100.00
1077;BME280;64114;48.726;9.370;2022-10-16T05:36:18;98655.16;;;15.04;100.00
1077;BME280;64114;48.726;9.370;2022-10-16T05:38:50;98679.16;;;15.08;100.00
1077;BME280;64114;48.726;9.370;2022-10-16T05:41:18;98651.88;;;14.90;100.00
1077;BME280;64114;48.726;9.370;2022-10-16T05:43:48;98674.91;;;15.05;100.00
1077;BME280;64114;48.726;9.370;2022-10-16T05:46:16;98686.47;;;15.42;100.00
1077;BME280;64114;48.726;9.370;2022-10-16T05:48:44;98690.91;;;15.29;100.00
1077;BME280;64114;48.726;9.370;2022-10-16T05:51:14;98657.88;;;14.92;100.00
1077;BME280;64114;48.726;9.370;2022-10-16T05:53:42;98697.34;;;15.00;100.00
1077;BME280;64114;48.726;9.370;2022-10-16T05:56:14;98671.06;;;14.69;100.00
1077;BME280;64114;48.726;9.370;2022-10-16T05:58:42;98680.50;;;14.70;100.00
1077;BME280;64114;48.726;9.370;2022-10-16T06:01:12;98690.59;;;14.88;100.00
1077;BME280;64114;48.726;9.370;2022-10-16T06:03:41;98702.81;;;15.39;100.00
1077;BME280;64114;48.726;9.370;2022-10-16T06:06:10;98690.81;;;15.37;100.00
1077;BME280;64114;48.726;9.370;2022-10-16T06:08:41;98703.25;;;15.12;100.00
1077;BME280;64114;48.726;9.370;2022-10-16T06:11:12;98708.47;;;15.05;100.00
1077;BME280;64114;48.726;9.370;2022-10-16T06:13:40;98719.63;;;15.07;100.00
1077;BME280;64114;48.726;9.370;2022-10-16T06:16:09;98635.94;;;14.58;100.00
1077;BME280;64114;48.726;9.370;2022-10-16T06:18:38;98714.41;;;15.12;100.00
1077;BME280;64114;48.726;9.370;2022-10-16T06:21:10;98710.16;;;15.08;100.00
1077;BME280;64114;48.726;9.370;2022-10-16T06:23:39;98722.97;;;15.14;100.00
1077;BME280;64114;48.726;9.370;2022-10-16T06:26:08;98724.72;;;15.12;100.00
1077;BME280;64114;48.726;9.370;2022-10-16T06:28:37;98697.38;;;14.99;100.00
1077;BME280;64114;48.726;9.370;2022-10-16T06:31:07;98730.44;;;15.34;100.00
1077;BME280;64114;48.726;9.370;2022-10-16T06:33:35;98706.66;;;15.14;100.00
1077;BME280;64114;48.726;9.370;2022-10-16T06:36:04;98739.03;;;15.36;100.00
1077;BME280;64114;48.726;9.370;2022-10-16T06:38:32;98736.31;;;15.50;100.00
1077;BME280;64114;48.726;9.370;2022-10-16T06:41:01;98724.19;;;15.54;100.00
1077;BME280;64114;48.726;9.370;2022-10-16T06:43:30;98740.25;;;15.75;100.00
1077;BME280;64114;48.726;9.370;2022-10-16T06:45:59;98723.88;;;15.76;100.00
1077;BME280;64114;48.726;9.370;2022-10-16T06:48:28;98733.28;;;15.80;100.00
1077;BME280;64114;48.726;9.370;2022-10-16T06:50:57;98737.19;;;16.06;100.00
1077;BME280;64114;48.726;9.370;2022-10-16T06:53:26;98752.09;;;15.88;100.00
1077;BME280;64114;48.726;9.370;2022-10-16T06:55:55;98741.03;;;15.80;100.00
1077;BME280;64114;48.726;9.370;2022-10-16T06:58:24;98752.84;;;15.96;100.00
1077;BME280;64114;48.726;9.370;2022-10-16T07:00:55;98737.94;;;16.12;100.00
1077;BME280;64114;48.726;9.370;2022-10-16T07:03:23;98765.13;;;16.37;100.00
1077;BME280;64114;48.726;9.370;2022-10-16T07:05:51;98752.63;;;16.61;100.00
1077;BME280;64114;48.726;9.370;2022-10-16T07:08:18;98771.47;;;16.67;100.00
1077;BME280;64114;48.726;9.370;2022-10-16T07:10:46;98765.56;;;16.61;100.00
1077;BME280;64114;48.726;9.370;2022-10-16T07:13:14;98765.41;;;16.70;100.00
1077;BME280;64114;48.726;9.370;2022-10-16T07:15:43;98775.38;;;16.90;100.00
1077;BME280;64114;48.726;9.370;2022-10-16T07:18:11;98751.38;;;16.83;100.00
1077;BME280;64114;48.726;9.370;2022-10-16T07:20:39;98791.78;;;16.91;100.00
1077;BME280;64114;48.726;9.370;2022-10-16T07:23:07;98789.91;;;16.97;100.00
1077;BME280;64114;48.726;9.370;2022-10-16T07:25:34;98711.00;;;16.73;100.00
1077;BME280;64114;48.726;9.370;2022-10-16T07:28:03;98801.44;;;17.26;100.00
1077;BME280;64114;48.726;9.370;2022-10-16T07:30:34;98732.50;;;16.77;100.00
1077;BME280;64114;48.726;9.370;2022-10-16T07:33:04;98710.78;;;16.38;100.00
1077;BME280;64114;48.726;9.370;2022-10-16T07:35:31;98809.84;;;16.94;100.00
1077;BME280;64114;48.726;9.370;2022-10-16T07:37:59;98804.09;;;16.78;100.00
1077;BME280;64114;48.726;9.370;2022-10-16T07:40:27;98825.38;;;16.94;100.00
1077;BME280;64114;48.726;9.370;2022-10-16T07:42:55;98800.72;;;16.73;100.00
1077;BME280;64114;48.726;9.370;2022-10-16T07:45:23;98830.53;;;16.95;100.00
1077;BME280;64114;48.726;9.370;2022-10-16T07:47:51;98835.47;;;17.09;100.00
1077;BME280;64114;48.726;9.370;2022-10-16T07:50:20;98840.34;;;17.23;100.00
1077;BME280;64114;48.726;9.370;2022-10-16T07:52:48;98830.75;;;17.30;100.00
1077;BME280;64114;48.726;9.370;2022-10-16T07:55:15;98838.38;;;17.36;100.00
1077;BME280;64114;48.726;9.370;2022-10-16T07:57:43;98827.84;;;17.44;100.00
1077;BME280;64114;48.726;9.370;2022-10-16T08:00:12;98827.84;;;17.45;100.00
1077;BME280;64114;48.726;9.370;2022-10-16T08:02:40;98830.03;;;17.64;100.00
1077;BME280;64114;48.726;9.370;2022-10-16T08:05:08;98828.97;;;17.73;100.00
1077;BME280;64114;48.726;9.370;2022-10-16T08:07:38;98835.91;;;17.72;100.00
1077;BME280;64114;48.726;9.370;2022-10-16T08:10:06;98831.63;;;17.71;100.00
1077;BME280;64114;48.726;9.370;2022-10-16T08:12:36;98820.88;;;17.88;100.00
1077;BME280;64114;48.726;9.370;2022-10-16T08:15:04;98826.84;;;17.92;100.00
1077;BME280;64114;48.726;9.370;2022-10-16T08:17:33;98827.44;;;18.03;100.00
1077;BME280;64114;48.726;9.370;2022-10-16T08:20:00;98826.28;;;18.17;100.00
1077;BME280;64114;48.726;9.370;2022-10-16T08:22:28;98833.66;;;18.34;100.00
1077;BME280;64114;48.726;9.370;2022-10-16T08:24:59;98843.69;;;18.50;100.00
1077;BME280;64114;48.726;9.370;2022-10-16T08:27:30;98837.72;;;18.79;100.00
1077;BME280;64114;48.726;9.370;2022-10-16T08:29:58;98822.59;;;18.62;100.00
1077;BME280;64114;48.726;9.370;2022-10-16T08:32:27;98841.38;;;18.72;100.00
1077;BME280;64114;48.726;9.370;2022-10-16T08:34:57;98853.84;;;18.92;100.00
1077;BME280;64114;48.726;9.370;2022-10-16T08:37:24;98849.81;;;19.15;100.00
1077;BME280;64114;48.726;9.370;2022-10-16T08:39:53;98844.16;;;19.32;99.40
1077;BME280;64114;48.726;9.370;2022-10-16T08:42:32;98838.63;;;19.43;97.62
1077;BME280;64114;48.726;9.370;2022-10-16T08:45:21;98836.13;;;19.70;95.78
1077;BME280;64114;48.726;9.370;2022-10-16T08:48:00;98860.53;;;19.94;94.19
1077;BME280;64114;48.726;9.370;2022-10-16T08:50:36;98856.25;;;19.93;93.08
1077;BME280;64114;48.726;9.370;2022-10-16T08:53:15;98818.34;;;19.56;93.97
1077;BME280;64114;48.726;9.370;2022-10-16T08:55:46;98866.78;;;19.58;96.97
1077;BME280;64114;48.726;9.370;2022-10-16T08:58:17;98860.31;;;19.72;96.29
1077;BME280;64114;48.726;9.370;2022-10-16T09:00:47;98871.13;;;19.88;95.46
1077;BME280;64114;48.726;9.370;2022-10-16T09:03:32;98860.72;;;19.88;95.65
1077;BME280;64114;48.726;9.370;2022-10-16T09:06:16;98854.19;;;19.74;96.35
1077;BME280;64114;48.726;9.370;2022-10-16T09:08:58;98858.19;;;19.56;99.16
1077;BME280;64114;48.726;9.370;2022-10-16T09:11:41;98874.31;;;19.98;97.09
1077;BME280;64114;48.726;9.370;2022-10-16T09:14:28;98865.44;;;20.33;94.35
1077;BME280;64114;48.726;9.370;2022-10-16T09:17:17;98859.16;;;20.39;93.81
1077;BME280;64114;48.726;9.370;2022-10-16T09:19:51;98879.63;;;20.77;91.66
1077;BME280;64114;48.726;9.370;2022-10-16T09:22:26;98880.53;;;21.03;89.52
1077;BME280;64114;48.726;9.370;2022-10-16T09:24:59;98882.97;;;21.07;90.12
1077;BME280;64114;48.726;9.370;2022-10-16T09:27:28;98869.25;;;21.02;90.00
1077;BME280;64114;48.726;9.370;2022-10-16T09:29:58;98879.19;;;21.16;89.41
1077;BME280;64114;48.726;9.370;2022-10-16T09:32:25;98870.69;;;21.11;87.75
1077;BME280;64114;48.726;9.370;2022-10-16T09:34:56;98888.03;;;21.37;86.56
1077;BME280;64114;48.726;9.370;2022-10-16T09:37:25;98871.63;;;21.34;86.43
1077;BME280;64114;48.726;9.370;2022-10-16T09:39:54;98872.03;;;21.47;84.60
1077;BME280;64114;48.726;9.370;2022-10-16T09:42:25;98888.53;;;21.71;83.94
1077;BME280;64114;48.726;9.370;2022-10-16T09:44:57;98857.28;;;21.69;81.78
1077;BME280;64114;48.726;9.370;2022-10-16T09:47:27;98887.22;;;21.83;79.60
1077;BME280;64114;48.726;9.370;2022-10-16T09:49:57;98899.09;;;21.92;77.85
1077;BME280;64114;48.726;9.370;2022-10-16T09:52:29;98801.34;;;21.31;77.31
1077;BME280;64114;48.726;9.370;2022-10-16T09:54:58;98888.91;;;22.08;76.09
1077;BME280;64114;48.726;9.370;2022-10-16T09:57:26;98888.53;;;22.17;76.83
1077;BME280;64114;48.726;9.370;2022-10-16T09:59:58;98858.13;;;21.94;76.59
1077;BME280;64114;48.726;9.370;2022-10-16T10:02:29;98848.25;;;21.78;76.33
1077;BME280;64114;48.726;9.370;2022-10-16T10:04:58;98868.88;;;21.84;77.10
1077;BME280;64114;48.726;9.370;2022-10-16T10:07:28;98895.50;;;21.94;77.73
1077;BME280;64114;48.726;9.370;2022-10-16T10:10:01;98894.19;;;21.82;78.12
1077;BME280;64114;48.726;9.370;2022-10-16T10:12:31;98875.09;;;21.82;78.34
1077;BME280;64114;48.726;9.370;2022-10-16T10:15:07;98897.94;;;22.21;77.29
1077;BME280;64114;48.726;9.370;2022-10-16T10:17:45;98822.13;;;22.02;77.05
1077;BME280;64114;48.726;9.370;2022-10-16T10:20:22;98869.66;;;22.55;75.08
1077;BME280;64114;48.726;9.370;2022-10-16T10:22:50;98888.91;;;22.95;74.09
1077;BME280;64114;48.726;9.370;2022-10-16T10:25:27;98881.97;;;22.94;73.48
1077;BME280;64114;48.726;9.370;2022-10-16T10:28:18;98886.81;;;23.04;72.87
1077;BME280;64114;48.726;9.370;2022-10-16T10:30:56;98894.44;;;22.87;72.38
1077;BME280;64114;48.726;9.370;2022-10-16T10:33:30;98888.91;;;22.73;73.61
1077;BME280;64114;48.726;9.370;2022-10-16T10:36:08;98881.72;;;22.57;73.85
1077;BME280;64114;48.726;9.370;2022-10-16T10:38:45;98889.03;;;22.70;74.21
1077;BME280;64114;48.726;9.370;2022-10-16T10:41:27;98890.59;;;22.96;73.03
1077;BME280;64114;48.726;9.370;2022-10-16T10:44:04;98877.94;;;23.08;71.31
1077;BME280;64114;48.726;9.370;2022-10-16T10:46:41;98894.44;;;23.08;71.52
1077;BME280;64114;48.726;9.370;2022-10-16T10:49:31;98887.09;;;23.37;71.03
1077;BME280;64114;48.726;9.370;2022-10-16T10:52:13;98884.41;;;23.39;71.02
1077;BME280;64114;48.726;9.370;2022-10-16T10:54:55;98890.78;;;23.52;70.29
1077;BME280;64114;48.726;9.370;2022-10-16T10:57:29;98893.91;;;23.21;70.89
1077;BME280;64114;48.726;9.370;2022-10-16T11:00:16;98895.19;;;23.12;72.28
1077;BME280;64114;48.726;9.370;2022-10-16T11:02:52;98880.84;;;23.00;72.27
1077;BME280;64114;48.726;9.370;2022-10-16T11:05:29;98889.69;;;22.97;71.55
1077;BME280;64114;48.726;9.370;2022-10-16T11:07:59;98870.13;;;22.85;71.30
1077;BME280;64114;48.726;9.370;2022-10-16T11:10:31;98882.63;;;22.99;71.23
1077;BME280;64114;48.726;9.370;2022-10-16T11:13:14;98873.00;;;23.00;71.51
1077;BME280;64114;48.726;9.370;2022-10-16T11:15:45;98870.91;;;23.08;71.59
1077;BME280;64114;48.726;9.370;2022-10-16T11:18:26;98882.75;;;23.17;70.51
1077;BME280;64114;48.726;9.370;2022-10-16T11:21:00;98878.78;;;23.27;70.80
1077;BME280;64114;48.726;9.370;2022-10-16T11:23:31;98871.25;;;23.40;70.28
1077;BME280;64114;48.726;9.370;2022-10-16T11:26:05;98865.91;;;23.43;70.08
1077;BME280;64114;48.726;9.370;2022-10-16T11:28:42;98854.94;;;23.54;68.68
1077;BME280;64114;48.726;9.370;2022-10-16T11:31:16;98850.81;;;23.69;69.01
1077;BME280;64114;48.726;9.370;2022-10-16T11:33:51;98853.50;;;23.87;67.70
1077;BME280;64114;48.726;9.370;2022-10-16T11:36:23;98840.25;;;23.90;64.54
1077;BME280;64114;48.726;9.370;2022-10-16T11:39:00;98852.19;;;24.15;65.13
1077;BME280;64114;48.726;9.370;2022-10-16T11:41:34;98807.44;;;23.83;62.76
1077;BME280;64114;48.726;9.370;2022-10-16T11:44:16;98858.03;;;24.20;63.50
1077;BME280;64114;48.726;9.370;2022-10-16T11:46:50;98864.59;;;24.29;61.44
1077;BME280;64114;48.726;9.370;2022-10-16T11:49:44;98857.34;;;24.34;60.23
1077;BME280;64114;48.726;9.370;2022-10-16T11:52:17;98849.19;;;24.40;60.61
1077;BME280;64114;48.726;9.370;2022-10-16T11:54:51;98835.13;;;24.43;61.75
1077;BME280;64114;48.726;9.370;2022-10-16T11:57:24;98853.59;;;24.40;61.28
1077;BME280;64114;48.726;9.370;2022-10-16T11:59:58;98852.16;;;24.52;61.69
1077;BME280;64114;48.726;9.370;2022-10-16T12:02:46;98675.16;;;23.39;59.99
1077;BME280;64114;48.726;9.370;2022-10-16T12:05:27;98850.69;;;24.81;59.53
1077;BME280;64114;48.726;9.370;2022-10-16T12:08:08;98845.56;;;24.96;59.30
1077;BME280;64114;48.726;9.370;2022-10-16T12:10:39;98845.50;;;24.97;59.79
1077;BME280;64114;48.726;9.370;2022-10-16T12:13:29;98842.09;;;25.13;59.99
1077;BME280;64114;48.726;9.370;2022-10-16T12:16:05;98838.28;;;25.18;59.76
1077;BME280;64114;48.726;9.370;2022-10-16T12:18:33;98837.00;;;25.27;58.42
1077;BME280;64114;48.726;9.370;2022-10-16T12:21:03;98828.88;;;25.32;57.81
1077;BME280;64114;48.726;9.370;2022-10-16T12:23:36;98830.06;;;25.42;57.17
1077;BME280;64114;48.726;9.370;2022-10-16T12:26:05;98843.13;;;25.44;57.78
1077;BME280;64114;48.726;9.370;2022-10-16T12:31:03;98841.69;;;25.54;54.82
1077;BME280;64114;48.726;9.370;2022-10-16T12:33:34;98834.66;;;25.55;56.01
1077;BME280;64114;48.726;9.370;2022-10-16T12:36:10;98837.72;;;25.47;55.73
1077;BME280;64114;48.726;9.370;2022-10-16T12:38:46;98836.59;;;25.67;55.76
1077;BME280;64114;48.726;9.370;2022-10-16T12:41:24;98822.47;;;25.86;55.10
1077;BME280;64114;48.726;9.370;2022-10-16T12:43:53;98840.91;;;26.16;54.91
1077;BME280;64114;48.726;9.370;2022-10-16T12:46:37;98844.31;;;26.18;54.17
1077;BME280;64114;48.726;9.370;2022-10-16T12:49:18;98847.63;;;26.22;53.32
1077;BME280;64114;48.726;9.370;2022-10-16T12:51:49;98854.66;;;25.73;54.05
1077;BME280;64114;48.726;9.370;2022-10-16T12:54:19;98854.88;;;25.36;55.18
1077;BME280;64114;48.726;9.370;2022-10-16T12:57:17;98851.28;;;26.03;55.22
1077;BME280;64114;48.726;9.370;2022-10-16T12:59:51;98851.72;;;26.42;54.75
1077;BME280;64114;48.726;9.370;2022-10-16T13:02:39;98840.38;;;26.42;54.95
1077;BME280;64114;48.726;9.370;2022-10-16T13:05:21;98847.69;;;26.36;55.14
1077;BME280;64114;48.726;9.370;2022-10-16T13:08:01;98847.91;;;26.32;54.35
1077;BME280;64114;48.726;9.370;2022-10-16T13:10:35;98850.19;;;26.07;55.73
1077;BME280;64114;48.726;9.370;2022-10-16T13:13:20;98855.06;;;25.98;55.38
1077;BME280;64114;48.726;9.370;2022-10-16T13:16:01;98862.56;;;26.05;55.29
1077;BME280;64114;48.726;9.370;2022-10-16T13:18:40;98841.88;;;25.99;55.47
1077;BME280;64114;48.726;9.370;2022-10-16T13:21:20;98855.31;;;25.61;54.27
1077;BME280;64114;48.726;9.370;2022-10-16T13:24:00;98867.00;;;26.19;53.16
1077;BME280;64114;48.726;9.370;2022-10-16T13:26:36;98854.75;;;26.50;52.34
1077;BME280;64114;48.726;9.370;2022-10-16T13:29:09;98853.84;;;26.66;52.68
1077;BME280;64114;48.726;9.370;2022-10-16T13:31:38;98848.72;;;26.48;51.83